sensor_id;sensor_type;location;lat;lon;timestamp;P1;durP1;ratioP1;P2;durP2;ratioP2
77111;SDS011;66064;50.226;14.344;2024-03-23T00:54:59;20.60;;;16.58;;
77111;SDS011;66064;50.226;14.344;2024-03-23T00:57:26;24.42;;;16.88;;
77111;SDS011;66064;50.226;14.344;2024-03-23T00:59:52;23.63;;;17.25;;
77111;SDS011;66064;50.226;14.344;2024-03-23T01:02:18;20.63;;;15.68;;
77111;SDS011;66064;50.226;14.344;2024-03-23T01:04:44;17.85;;;15.07;;
77111;SDS011;66064;50.226;14.344;2024-03-23T01:07:10;21.55;;;16.15;;
77111;SDS011;66064;50.226;14.344;2024-03-23T01:09:36;22.58;;;16.02;;
77111;SDS011;66064;50.226;14.344;2024-03-23T01:12:04;20.40;;;14.73;;
77111;SDS011;66064;50.226;14.344;2024-03-23T01:14:30;20.48;;;14.43;;
77111;SDS011;66064;50.226;14.344;2024-03-23T01:16:57;23.63;;;15.00;;
77111;SDS011;66064;50.226;14.344;2024-03-23T01:19:23;21.52;;;16.40;;
77111;SDS011;66064;50.226;14.344;2024-03-23T01:21:49;22.25;;;17.38;;
77111;SDS011;66064;50.226;14.344;2024-03-23T01:24:15;22.25;;;16.83;;
77111;SDS011;66064;50.226;14.344;2024-03-23T01:26:41;19.13;;;15.88;;
77111;SDS011;66064;50.226;14.344;2024-03-23T01:29:07;18.92;;;15.73;;
77111;SDS011;66064;50.226;14.344;2024-03-23T01:31:33;19.48;;;16.38;;
77111;SDS011;66064;50.226;14.344;2024-03-23T01:33:58;20.88;;;16.60;;
77111;SDS011;66064;50.226;14.344;2024-03-23T01:36:24;22.40;;;15.20;;
77111;SDS011;66064;50.226;14.344;2024-03-23T01:38:51;22.20;;;17.75;;
77111;SDS011;66064;50.226;14.344;2024-03-23T01:41:18;20.95;;;16.80;;
77111;SDS011;66064;50.226;14.344;2024-03-23T01:43:44;22.80;;;16.52;;
77111;SDS011;66064;50.226;14.344;2024-03-23T01:46:10;19.48;;;16.40;;
77111;SDS011;66064;50.226;14.344;2024-03-23T01:48:36;23.80;;;17.80;;
77111;SDS011;66064;50.226;14.344;2024-03-23T01:51:03;20.13;;;16.92;;
77111;SDS011;66064;50.226;14.344;2024-03-23T01:53:30;19.27;;;15.40;;
77111;SDS011;66064;50.226;14.344;2024-03-23T01:55:56;21.92;;;16.80;;
77111;SDS011;66064;50.226;14.344;2024-03-23T01:58:22;24.13;;;18.25;;
77111;SDS011;66064;50.226;14.344;2024-03-23T02:00:49;27.27;;;20.67;;
77111;SDS011;66064;50.226;14.344;2024-03-23T02:03:24;28.55;;;18.90;;
77111;SDS011;66064;50.226;14.344;2024-03-23T02:05:54;27.92;;;19.67;;
77111;SDS011;66064;50.226;14.344;2024-03-23T02:08:21;24.42;;;19.92;;
77111;SDS011;66064;50.226;14.344;2024-03-23T02:10:49;23.35;;;18.90;;
77111;SDS011;66064;50.226;14.344;2024-03-23T02:13:16;22.23;;;18.20;;
77111;SDS011;66064;50.226;14.344;2024-03-23T02:15:43;19.02;;;17.00;;
77111;SDS011;66064;50.226;14.344;2024-03-23T02:18:10;23.63;;;16.17;;
77111;SDS011;66064;50.226;14.344;2024-03-23T02:20:36;20.95;;;17.55;;
77111;SDS011;66064;50.226;14.344;2024-03-23T02:23:03;21.75;;;16.50;;
77111;SDS011;66064;50.226;14.344;2024-03-23T02:25:34;24.08;;;16.80;;
77111;SDS011;66064;50.226;14.344;2024-03-23T02:28:00;19.92;;;15.35;;
77111;SDS011;66064;50.226;14.344;2024-03-23T02:30:26;20.55;;;16.75;;
77111;SDS011;66064;50.226;14.344;2024-03-23T02:32:52;20.17;;;15.50;;
77111;SDS011;66064;50.226;14.344;2024-03-23T02:35:18;22.63;;;17.50;;
77111;SDS011;66064;50.226;14.344;2024-03-23T02:37:46;22.52;;;17.35;;
77111;SDS011;66064;50.226;14.344;2024-03-23T02:40:12;20.80;;;15.32;;
77111;SDS011;66064;50.226;14.344;2024-03-23T02:42:38;19.15;;;16.30;;
77111;SDS011;66064;50.226;14.344;2024-03-23T02:45:04;22.77;;;16.77;;
77111;SDS011;66064;50.226;14.344;2024-03-23T02:47:30;21.55;;;15.95;;
77111;SDS011;66064;50.226;14.344;2024-03-23T02:49:57;22.25;;;17.73;;
77111;SDS011;66064;50.226;14.344;2024-03-23T02:52:24;23.02;;;17.00;;
77111;SDS011;66064;50.226;14.344;2024-03-23T02:54:52;20.75;;;18.00;;
77111;SDS011;66064;50.226;14.344;2024-03-23T02:57:18;24.67;;;18.55;;
77111;SDS011;66064;50.226;14.344;2024-03-23T02:59:45;21.50;;;16.75;;
77111;SDS011;66064;50.226;14.344;2024-03-23T03:02:11;24.50;;;18.42;;
77111;SDS011;66064;50.226;14.344;2024-03-23T03:04:38;28.05;;;20.02;;
77111;SDS011;66064;50.226;14.344;2024-03-23T03:07:04;27.08;;;16.65;;
77111;SDS011;66064;50.226;14.344;2024-03-23T03:09:31;26.35;;;18.73;;
77111;SDS011;66064;50.226;14.344;2024-03-23T03:11:57;24.35;;;19.30;;
77111;SDS011;66064;50.226;14.344;2024-03-23T03:14:23;25.13;;;18.77;;
77111;SDS011;66064;50.226;14.344;2024-03-23T03:16:48;22.05;;;16.75;;
77111;SDS011;66064;50.226;14.344;2024-03-23T03:19:15;22.92;;;16.85;;
77111;SDS011;66064;50.226;14.344;2024-03-23T03:21:42;21.30;;;17.02;;
77111;SDS011;66064;50.226;14.344;2024-03-23T03:24:08;23.27;;;17.92;;
77111;SDS011;66064;50.226;14.344;2024-03-23T03:26:35;20.50;;;18.27;;
77111;SDS011;66064;50.226;14.344;2024-03-23T03:29:01;22.77;;;19.77;;
77111;SDS011;66064;50.226;14.344;2024-03-23T03:31:28;23.77;;;18.20;;
77111;SDS011;66064;50.226;14.344;2024-03-23T03:33:54;24.77;;;17.73;;
77111;SDS011;66064;50.226;14.344;2024-03-23T03:36:20;29.27;;;21.30;;
77111;SDS011;66064;50.226;14.344;2024-03-23T03:38:46;22.13;;;17.38;;
77111;SDS011;66064;50.226;14.344;2024-03-23T03:41:12;25.90;;;20.35;;
77111;SDS011;66064;50.226;14.344;2024-03-23T03:43:38;22.90;;;18.77;;
77111;SDS011;66064;50.226;14.344;2024-03-23T03:46:04;26.10;;;19.73;;
77111;SDS011;66064;50.226;14.344;2024-03-23T03:48:30;27.40;;;20.25;;
77111;SDS011;66064;50.226;14.344;2024-03-23T03:50:56;23.27;;;19.23;;
77111;SDS011;66064;50.226;14.344;2024-03-23T03:53:22;21.45;;;19.02;;
77111;SDS011;66064;50.226;14.344;2024-03-23T03:55:48;23.27;;;18.00;;
77111;SDS011;66064;50.226;14.344;2024-03-23T03:58:14;21.60;;;17.85;;
77111;SDS011;66064;50.226;14.344;2024-03-23T04:00:40;21.50;;;18.92;;
77111;SDS011;66064;50.226;14.344;2024-03-23T04:03:06;23.92;;;17.63;;
77111;SDS011;66064;50.226;14.344;2024-03-23T04:05:32;22.08;;;19.20;;
77111;SDS011;66064;50.226;14.344;2024-03-23T04:07:58;19.55;;;17.50;;
77111;SDS011;66064;50.226;14.344;2024-03-23T04:10:24;19.80;;;17.30;;
77111;SDS011;66064;50.226;14.344;2024-03-23T04:12:50;25.08;;;19.38;;
77111;SDS011;66064;50.226;14.344;2024-03-23T04:15:16;21.88;;;17.50;;
77111;SDS011;66064;50.226;14.344;2024-03-23T04:17:42;22.67;;;18.85;;
77111;SDS011;66064;50.226;14.344;2024-03-23T04:20:08;23.80;;;18.58;;
77111;SDS011;66064;50.226;14.344;2024-03-23T04:22:38;23.83;;;19.42;;
77111;SDS011;66064;50.226;14.344;2024-03-23T04:25:03;25.33;;;18.45;;
77111;SDS011;66064;50.226;14.344;2024-03-23T04:27:32;23.27;;;19.65;;
77111;SDS011;66064;50.226;14.344;2024-03-23T04:29:59;23.73;;;17.95;;
77111;SDS011;66064;50.226;14.344;2024-03-23T04:32:30;23.15;;;16.38;;
77111;SDS011;66064;50.226;14.344;2024-03-23T04:34:56;26.67;;;17.83;;
77111;SDS011;66064;50.226;14.344;2024-03-23T04:37:22;27.10;;;19.70;;
77111;SDS011;66064;50.226;14.344;2024-03-23T04:39:48;27.33;;;20.35;;
77111;SDS011;66064;50.226;14.344;2024-03-23T04:42:17;22.95;;;18.95;;
77111;SDS011;66064;50.226;14.344;2024-03-23T04:44:43;28.63;;;19.38;;
77111;SDS011;66064;50.226;14.344;2024-03-23T04:47:09;26.80;;;18.95;;
77111;SDS011;66064;50.226;14.344;2024-03-23T04:49:35;28.98;;;20.25;;
77111;SDS011;66064;50.226;14.344;2024-03-23T04:52:03;28.83;;;20.17;;
77111;SDS011;66064;50.226;14.344;2024-03-23T04:54:30;27.08;;;21.02;;
77111;SDS011;66064;50.226;14.344;2024-03-23T04:56:58;29.48;;;22.25;;
77111;SDS011;66064;50.226;14.344;2024-03-23T04:59:24;26.48;;;21.50;;
77111;SDS011;66064;50.226;14.344;2024-03-23T05:01:50;25.35;;;22.27;;
77111;SDS011;66064;50.226;14.344;2024-03-23T05:04:16;32.47;;;20.80;;
77111;SDS011;66064;50.226;14.344;2024-03-23T05:06:42;31.75;;;21.38;;
77111;SDS011;66064;50.226;14.344;2024-03-23T05:09:08;36.13;;;23.40;;
77111;SDS011;66064;50.226;14.344;2024-03-23T05:11:38;28.95;;;21.83;;
77111;SDS011;66064;50.226;14.344;2024-03-23T05:14:04;38.95;;;23.60;;
77111;SDS011;66064;50.226;14.344;2024-03-23T05:16:30;33.75;;;22.20;;
77111;SDS011;66064;50.226;14.344;2024-03-23T05:18:56;31.15;;;20.27;;
77111;SDS011;66064;50.226;14.344;2024-03-23T05:21:22;26.35;;;20.77;;
77111;SDS011;66064;50.226;14.344;2024-03-23T05:23:49;21.48;;;18.30;;
77111;SDS011;66064;50.226;14.344;2024-03-23T05:26:17;26.55;;;19.58;;
77111;SDS011;66064;50.226;14.344;2024-03-23T05:28:43;26.58;;;19.75;;
77111;SDS011;66064;50.226;14.344;2024-03-23T05:31:09;28.35;;;19.02;;
77111;SDS011;66064;50.226;14.344;2024-03-23T05:33:38;27.95;;;19.45;;
77111;SDS011;66064;50.226;14.344;2024-03-23T05:36:04;29.92;;;21.65;;
77111;SDS011;66064;50.226;14.344;2024-03-23T05:38:31;29.88;;;21.08;;
77111;SDS011;66064;50.226;14.344;2024-03-23T05:40:57;27.30;;;22.65;;
77111;SDS011;66064;50.226;14.344;2024-03-23T05:43:24;31.02;;;20.98;;
77111;SDS011;66064;50.226;14.344;2024-03-23T05:45:58;27.42;;;22.05;;
77111;SDS011;66064;50.226;14.344;2024-03-23T05:48:25;27.95;;;20.45;;
77111;SDS011;66064;50.226;14.344;2024-03-23T05:50:53;24.75;;;20.27;;
77111;SDS011;66064;50.226;14.344;2024-03-23T05:53:19;24.90;;;20.88;;
77111;SDS011;66064;50.226;14.344;2024-03-23T05:55:49;27.92;;;20.52;;
77111;SDS011;66064;50.226;14.344;2024-03-23T05:58:16;29.70;;;21.88;;
77111;SDS011;66064;50.226;14.344;2024-03-23T06:00:44;27.92;;;21.95;;
77111;SDS011;66064;50.226;14.344;2024-03-23T06:03:10;25.27;;;18.35;;
77111;SDS011;66064;50.226;14.344;2024-03-23T06:05:37;24.60;;;19.10;;
77111;SDS011;66064;50.226;14.344;2024-03-23T06:08:04;23.38;;;19.40;;
77111;SDS011;66064;50.226;14.344;2024-03-23T06:10:31;25.63;;;17.55;;
77111;SDS011;66064;50.226;14.344;2024-03-23T06:12:57;22.75;;;17.92;;
77111;SDS011;66064;50.226;14.344;2024-03-23T06:15:25;24.67;;;17.98;;
77111;SDS011;66064;50.226;14.344;2024-03-23T06:17:53;21.80;;;17.52;;
77111;SDS011;66064;50.226;14.344;2024-03-23T06:20:19;21.60;;;17.17;;
77111;SDS011;66064;50.226;14.344;2024-03-23T06:22:45;24.33;;;16.95;;
77111;SDS011;66064;50.226;14.344;2024-03-23T06:25:11;22.67;;;18.42;;
77111;SDS011;66064;50.226;14.344;2024-03-23T06:27:38;21.80;;;17.98;;
77111;SDS011;66064;50.226;14.344;2024-03-23T06:30:05;27.27;;;22.08;;
77111;SDS011;66064;50.226;14.344;2024-03-23T06:32:32;24.90;;;18.70;;
77111;SDS011;66064;50.226;14.344;2024-03-23T06:34:58;24.67;;;19.60;;
77111;SDS011;66064;50.226;14.344;2024-03-23T06:37:24;23.70;;;18.52;;
77111;SDS011;66064;50.226;14.344;2024-03-23T06:39:51;19.88;;;17.15;;
77111;SDS011;66064;50.226;14.344;2024-03-23T06:42:17;18.05;;;15.77;;
77111;SDS011;66064;50.226;14.344;2024-03-23T06:44:43;22.75;;;17.35;;
77111;SDS011;66064;50.226;14.344;2024-03-23T06:47:09;22.98;;;17.60;;
77111;SDS011;66064;50.226;14.344;2024-03-23T06:49:36;27.38;;;20.20;;
77111;SDS011;66064;50.226;14.344;2024-03-23T06:52:02;24.33;;;17.77;;
77111;SDS011;66064;50.226;14.344;2024-03-23T06:54:29;23.20;;;19.63;;
77111;SDS011;66064;50.226;14.344;2024-03-23T06:56:55;23.83;;;18.17;;
77111;SDS011;66064;50.226;14.344;2024-03-23T06:59:22;26.27;;;19.30;;
77111;SDS011;66064;50.226;14.344;2024-03-23T07:01:47;21.52;;;17.08;;
77111;SDS011;66064;50.226;14.344;2024-03-23T07:04:14;18.42;;;14.80;;
77111;SDS011;66064;50.226;14.344;2024-03-23T07:06:43;20.20;;;14.10;;
77111;SDS011;66064;50.226;14.344;2024-03-23T07:09:10;18.17;;;13.52;;
77111;SDS011;66064;50.226;14.344;2024-03-23T07:11:37;17.33;;;12.98;;
77111;SDS011;66064;50.226;14.344;2024-03-23T07:14:04;16.02;;;13.52;;
77111;SDS011;66064;50.226;14.344;2024-03-23T07:16:30;16.27;;;12.40;;
77111;SDS011;66064;50.226;14.344;2024-03-23T07:18:58;15.40;;;13.32;;
77111;SDS011;66064;50.226;14.344;2024-03-23T07:21:24;15.80;;;12.25;;
77111;SDS011;66064;50.226;14.344;2024-03-23T07:23:50;13.00;;;11.30;;
77111;SDS011;66064;50.226;14.344;2024-03-23T07:26:16;15.77;;;11.65;;
77111;SDS011;66064;50.226;14.344;2024-03-23T07:28:43;12.07;;;9.95;;
77111;SDS011;66064;50.226;14.344;2024-03-23T07:31:11;12.93;;;10.30;;
77111;SDS011;66064;50.226;14.344;2024-03-23T07:36:12;13.13;;;9.88;;
77111;SDS011;66064;50.226;14.344;2024-03-23T07:38:42;13.65;;;10.88;;
77111;SDS011;66064;50.226;14.344;2024-03-23T07:41:13;14.20;;;9.95;;
77111;SDS011;66064;50.226;14.344;2024-03-23T07:43:45;11.07;;;9.90;;
77111;SDS011;66064;50.226;14.344;2024-03-23T07:46:12;13.20;;;10.38;;
77111;SDS011;66064;50.226;14.344;2024-03-23T07:48:38;11.18;;;8.93;;
77111;SDS011;66064;50.226;14.344;2024-03-23T07:51:08;14.15;;;10.77;;
77111;SDS011;66064;50.226;14.344;2024-03-23T07:53:42;18.15;;;13.75;;
77111;SDS011;66064;50.226;14.344;2024-03-23T07:56:10;10.02;;;8.43;;
77111;SDS011;66064;50.226;14.344;2024-03-23T07:58:38;13.07;;;8.45;;
77111;SDS011;66064;50.226;14.344;2024-03-23T08:01:08;10.27;;;7.30;;
77111;SDS011;66064;50.226;14.344;2024-03-23T08:03:37;7.20;;;5.68;;
77111;SDS011;66064;50.226;14.344;2024-03-23T08:06:09;8.07;;;6.20;;
77111;SDS011;66064;50.226;14.344;2024-03-23T08:08:35;7.97;;;5.50;;
77111;SDS011;66064;50.226;14.344;2024-03-23T08:11:04;7.88;;;6.28;;
77111;SDS011;66064;50.226;14.344;2024-03-23T08:13:31;9.40;;;5.90;;
77111;SDS011;66064;50.226;14.344;2024-03-23T08:15:58;10.25;;;6.78;;
77111;SDS011;66064;50.226;14.344;2024-03-23T08:18:25;6.68;;;5.88;;
77111;SDS011;66064;50.226;14.344;2024-03-23T08:21:06;7.57;;;6.05;;
77111;SDS011;66064;50.226;14.344;2024-03-23T08:23:33;8.38;;;6.57;;
77111;SDS011;66064;50.226;14.344;2024-03-23T08:26:01;8.93;;;5.47;;
77111;SDS011;66064;50.226;14.344;2024-03-23T08:28:29;9.43;;;5.75;;
77111;SDS011;66064;50.226;14.344;2024-03-23T08:30:56;9.50;;;6.32;;
77111;SDS011;66064;50.226;14.344;2024-03-23T08:33:22;6.32;;;5.20;;
77111;SDS011;66064;50.226;14.344;2024-03-23T08:35:53;6.53;;;5.15;;
77111;SDS011;66064;50.226;14.344;2024-03-23T08:38:20;8.27;;;5.60;;
77111;SDS011;66064;50.226;14.344;2024-03-23T08:40:46;6.45;;;4.90;;
77111;SDS011;66064;50.226;14.344;2024-03-23T08:43:12;6.75;;;5.57;;
77111;SDS011;66064;50.226;14.344;2024-03-23T08:45:38;9.15;;;6.13;;
77111;SDS011;66064;50.226;14.344;2024-03-23T08:48:04;8.93;;;6.35;;
77111;SDS011;66064;50.226;14.344;2024-03-23T08:50:31;7.45;;;5.07;;
77111;SDS011;66064;50.226;14.344;2024-03-23T08:52:57;8.93;;;7.68;;
77111;SDS011;66064;50.226;14.344;2024-03-23T08:55:23;10.60;;;7.22;;
77111;SDS011;66064;50.226;14.344;2024-03-23T08:57:49;9.35;;;6.65;;
77111;SDS011;66064;50.226;14.344;2024-03-23T09:00:15;10.25;;;7.10;;
77111;SDS011;66064;50.226;14.344;2024-03-23T09:02:41;10.63;;;7.47;;
77111;SDS011;66064;50.226;14.344;2024-03-23T09:05:07;8.13;;;7.32;;
77111;SDS011;66064;50.226;14.344;2024-03-23T09:07:33;10.35;;;7.57;;
77111;SDS011;66064;50.226;14.344;2024-03-23T09:09:59;9.65;;;6.88;;
77111;SDS011;66064;50.226;14.344;2024-03-23T09:12:25;10.20;;;7.95;;
77111;SDS011;66064;50.226;14.344;2024-03-23T09:14:52;9.25;;;7.78;;
77111;SDS011;66064;50.226;14.344;2024-03-23T09:17:19;9.15;;;7.53;;
77111;SDS011;66064;50.226;14.344;2024-03-23T09:19:45;8.30;;;7.03;;
77111;SDS011;66064;50.226;14.344;2024-03-23T09:22:11;9.02;;;7.88;;
77111;SDS011;66064;50.226;14.344;2024-03-23T09:24:39;9.02;;;7.68;;
77111;SDS011;66064;50.226;14.344;2024-03-23T09:27:05;9.55;;;8.30;;
77111;SDS011;66064;50.226;14.344;2024-03-23T09:29:31;9.80;;;7.90;;
77111;SDS011;66064;50.226;14.344;2024-03-23T09:31:57;10.43;;;9.15;;
77111;SDS011;66064;50.226;14.344;2024-03-23T09:34:24;8.38;;;7.57;;
77111;SDS011;66064;50.226;14.344;2024-03-23T09:36:51;11.60;;;8.82;;
77111;SDS011;66064;50.226;14.344;2024-03-23T09:39:17;9.43;;;8.48;;
77111;SDS011;66064;50.226;14.344;2024-03-23T09:41:45;11.55;;;9.30;;
77111;SDS011;66064;50.226;14.344;2024-03-23T09:44:12;10.52;;;9.18;;
77111;SDS011;66064;50.226;14.344;2024-03-23T09:46:39;8.07;;;6.90;;
77111;SDS011;66064;50.226;14.344;2024-03-23T09:49:07;8.93;;;6.93;;
77111;SDS011;66064;50.226;14.344;2024-03-23T09:54:03;11.90;;;6.35;;
77111;SDS011;66064;50.226;14.344;2024-03-23T09:56:30;8.15;;;7.07;;
77111;SDS011;66064;50.226;14.344;2024-03-23T09:59:05;7.78;;;6.97;;
77111;SDS011;66064;50.226;14.344;2024-03-23T10:01:32;8.60;;;7.30;;
77111;SDS011;66064;50.226;14.344;2024-03-23T10:03:58;8.60;;;7.30;;
77111;SDS011;66064;50.226;14.344;2024-03-23T10:06:24;9.93;;;6.47;;
77111;SDS011;66064;50.226;14.344;2024-03-23T10:08:56;9.57;;;6.45;;
77111;SDS011;66064;50.226;14.344;2024-03-23T10:11:23;7.57;;;6.72;;
77111;SDS011;66064;50.226;14.344;2024-03-23T10:13:50;7.30;;;6.60;;
77111;SDS011;66064;50.226;14.344;2024-03-23T10:16:24;9.43;;;6.07;;
77111;SDS011;66064;50.226;14.344;2024-03-23T10:18:52;8.73;;;7.82;;
77111;SDS011;66064;50.226;14.344;2024-03-23T10:21:18;8.70;;;7.40;;
77111;SDS011;66064;50.226;14.344;2024-03-23T10:23:44;7.50;;;6.28;;
77111;SDS011;66064;50.226;14.344;2024-03-23T10:26:12;9.10;;;7.20;;
77111;SDS011;66064;50.226;14.344;2024-03-23T10:28:55;10.07;;;7.65;;
77111;SDS011;66064;50.226;14.344;2024-03-23T10:31:24;9.65;;;7.85;;
77111;SDS011;66064;50.226;14.344;2024-03-23T10:33:50;9.98;;;8.95;;
77111;SDS011;66064;50.226;14.344;2024-03-23T10:36:19;10.82;;;7.53;;
77111;SDS011;66064;50.226;14.344;2024-03-23T10:38:49;10.77;;;8.48;;
77111;SDS011;66064;50.226;14.344;2024-03-23T10:41:18;9.48;;;7.40;;
77111;SDS011;66064;50.226;14.344;2024-03-23T10:43:45;8.48;;;7.68;;
77111;SDS011;66064;50.226;14.344;2024-03-23T10:46:12;10.80;;;6.95;;
77111;SDS011;66064;50.226;14.344;2024-03-23T10:48:39;12.30;;;7.70;;
77111;SDS011;66064;50.226;14.344;2024-03-23T10:51:07;7.57;;;6.78;;
77111;SDS011;66064;50.226;14.344;2024-03-23T10:53:35;8.95;;;8.00;;
77111;SDS011;66064;50.226;14.344;2024-03-23T10:56:08;7.70;;;6.60;;
77111;SDS011;66064;50.226;14.344;2024-03-23T10:58:40;8.68;;;7.80;;
77111;SDS011;66064;50.226;14.344;2024-03-23T11:01:13;8.00;;;7.20;;
77111;SDS011;66064;50.226;14.344;2024-03-23T11:03:44;9.13;;;7.07;;
77111;SDS011;66064;50.226;14.344;2024-03-23T11:09:03;9.15;;;6.57;;
77111;SDS011;66064;50.226;14.344;2024-03-23T11:11:29;7.05;;;6.28;;
77111;SDS011;66064;50.226;14.344;2024-03-23T11:13:59;6.20;;;5.50;;
77111;SDS011;66064;50.226;14.344;2024-03-23T11:16:27;9.73;;;6.72;;
77111;SDS011;66064;50.226;14.344;2024-03-23T11:19:41;8.13;;;5.50;;
77111;SDS011;66064;50.226;14.344;2024-03-23T11:22:03;7.47;;;5.85;;
77111;SDS011;66064;50.226;14.344;2024-03-23T11:24:31;7.80;;;6.88;;
77111;SDS011;66064;50.226;14.344;2024-03-23T11:26:58;7.72;;;6.80;;
77111;SDS011;66064;50.226;14.344;2024-03-23T11:29:28;11.48;;;6.97;;
77111;SDS011;66064;50.226;14.344;2024-03-23T11:31:55;9.82;;;7.95;;
77111;SDS011;66064;50.226;14.344;2024-03-23T11:34:22;8.90;;;6.88;;
77111;SDS011;66064;50.226;14.344;2024-03-23T11:36:49;6.82;;;5.55;;
77111;SDS011;66064;50.226;14.344;2024-03-23T11:39:19;7.70;;;5.32;;
77111;SDS011;66064;50.226;14.344;2024-03-23T11:41:51;8.50;;;4.95;;
77111;SDS011;66064;50.226;14.344;2024-03-23T11:44:19;4.97;;;4.50;;
77111;SDS011;66064;50.226;14.344;2024-03-23T11:46:46;6.60;;;4.90;;
77111;SDS011;66064;50.226;14.344;2024-03-23T11:49:24;4.13;;;3.25;;
77111;SDS011;66064;50.226;14.344;2024-03-23T11:51:52;5.88;;;5.38;;
77111;SDS011;66064;50.226;14.344;2024-03-23T11:54:26;4.97;;;4.05;;
77111;SDS011;66064;50.226;14.344;2024-03-23T11:57:03;5.28;;;4.35;;
77111;SDS011;66064;50.226;14.344;2024-03-23T11:59:33;4.30;;;3.38;;
77111;SDS011;66064;50.226;14.344;2024-03-23T12:02:11;5.63;;;3.65;;
77111;SDS011;66064;50.226;14.344;2024-03-23T12:04:41;6.32;;;3.88;;
77111;SDS011;66064;50.226;14.344;2024-03-23T12:07:24;4.43;;;4.00;;
77111;SDS011;66064;50.226;14.344;2024-03-23T12:10:22;7.20;;;3.25;;
77111;SDS011;66064;50.226;14.344;2024-03-23T12:13:00;6.97;;;3.83;;
77111;SDS011;66064;50.226;14.344;2024-03-23T12:15:34;6.05;;;3.30;;
77111;SDS011;66064;50.226;14.344;2024-03-23T12:18:08;4.07;;;2.72;;
77111;SDS011;66064;50.226;14.344;2024-03-23T12:20:43;2.85;;;2.55;;
77111;SDS011;66064;50.226;14.344;2024-03-23T12:23:20;2.40;;;2.20;;
77111;SDS011;66064;50.226;14.344;2024-03-23T12:25:50;2.95;;;2.75;;
77111;SDS011;66064;50.226;14.344;2024-03-23T12:28:19;4.78;;;2.78;;
77111;SDS011;66064;50.226;14.344;2024-03-23T12:30:55;3.05;;;2.50;;
77111;SDS011;66064;50.226;14.344;2024-03-23T12:36:08;2.40;;;2.20;;
77111;SDS011;66064;50.226;14.344;2024-03-23T12:38:35;2.55;;;2.35;;
77111;SDS011;66064;50.226;14.344;2024-03-23T12:41:03;2.85;;;2.65;;
77111;SDS011;66064;50.226;14.344;2024-03-23T12:43:32;3.13;;;2.92;;
77111;SDS011;66064;50.226;14.344;2024-03-23T12:45:57;3.60;;;3.33;;
77111;SDS011;66064;50.226;14.344;2024-03-23T12:48:25;3.38;;;3.08;;
77111;SDS011;66064;50.226;14.344;2024-03-23T12:50:54;3.33;;;3.13;;
77111;SDS011;66064;50.226;14.344;2024-03-23T12:53:23;3.72;;;3.42;;
77111;SDS011;66064;50.226;14.344;2024-03-23T12:55:49;3.30;;;3.10;;
77111;SDS011;66064;50.226;14.344;2024-03-23T12:58:16;4.00;;;3.72;;
77111;SDS011;66064;50.226;14.344;2024-03-23T13:00:42;3.95;;;3.65;;
77111;SDS011;66064;50.226;14.344;2024-03-23T13:03:09;2.72;;;2.53;;
77111;SDS011;66064;50.226;14.344;2024-03-23T13:05:41;4.72;;;4.43;;
77111;SDS011;66064;50.226;14.344;2024-03-23T13:08:07;3.85;;;3.55;;
77111;SDS011;66064;50.226;14.344;2024-03-23T13:10:33;4.03;;;3.72;;
77111;SDS011;66064;50.226;14.344;2024-03-23T13:13:00;3.00;;;2.80;;
77111;SDS011;66064;50.226;14.344;2024-03-23T13:15:26;3.75;;;3.45;;
77111;SDS011;66064;50.226;14.344;2024-03-23T13:17:54;2.92;;;2.45;;
77111;SDS011;66064;50.226;14.344;2024-03-23T13:20:20;6.15;;;3.60;;
77111;SDS011;66064;50.226;14.344;2024-03-23T13:22:46;5.35;;;5.05;;
77111;SDS011;66064;50.226;14.344;2024-03-23T13:25:12;3.65;;;3.40;;
77111;SDS011;66064;50.226;14.344;2024-03-23T13:27:39;4.18;;;3.90;;
77111;SDS011;66064;50.226;14.344;2024-03-23T13:30:05;4.82;;;4.18;;
77111;SDS011;66064;50.226;14.344;2024-03-23T13:32:32;4.00;;;3.80;;
77111;SDS011;66064;50.226;14.344;2024-03-23T13:34:57;3.13;;;2.92;;
77111;SDS011;66064;50.226;14.344;2024-03-23T13:37:24;3.75;;;3.45;;
77111;SDS011;66064;50.226;14.344;2024-03-23T13:39:49;4.20;;;3.90;;
77111;SDS011;66064;50.226;14.344;2024-03-23T13:42:16;3.60;;;3.40;;
77111;SDS011;66064;50.226;14.344;2024-03-23T13:44:42;6.30;;;3.60;;
77111;SDS011;66064;50.226;14.344;2024-03-23T13:47:08;4.57;;;3.08;;
77111;SDS011;66064;50.226;14.344;2024-03-23T13:49:35;4.03;;;3.72;;
77111;SDS011;66064;50.226;14.344;2024-03-23T13:52:06;3.72;;;3.38;;
77111;SDS011;66064;50.226;14.344;2024-03-23T13:54:36;4.47;;;4.18;;
77111;SDS011;66064;50.226;14.344;2024-03-23T13:57:03;3.63;;;3.33;;
77111;SDS011;66064;50.226;14.344;2024-03-23T13:59:29;4.10;;;3.22;;
77111;SDS011;66064;50.226;14.344;2024-03-23T14:01:55;4.65;;;4.35;;
77111;SDS011;66064;50.226;14.344;2024-03-23T14:04:22;3.78;;;3.47;;
77111;SDS011;66064;50.226;14.344;2024-03-23T14:06:49;4.85;;;3.92;;
77111;SDS011;66064;50.226;14.344;2024-03-23T14:09:15;4.80;;;4.40;;
77111;SDS011;66064;50.226;14.344;2024-03-23T14:11:46;4.97;;;3.58;;
77111;SDS011;66064;50.226;14.344;2024-03-23T14:14:12;4.82;;;4.35;;
77111;SDS011;66064;50.226;14.344;2024-03-23T14:16:41;5.60;;;5.20;;
77111;SDS011;66064;50.226;14.344;2024-03-23T14:19:07;5.18;;;4.88;;
77111;SDS011;66064;50.226;14.344;2024-03-23T14:21:33;4.47;;;4.18;;
77111;SDS011;66064;50.226;14.344;2024-03-23T14:24:03;4.95;;;4.63;;
77111;SDS011;66064;50.226;14.344;2024-03-23T14:26:29;3.78;;;3.55;;
77111;SDS011;66064;50.226;14.344;2024-03-23T14:28:55;4.68;;;4.38;;
77111;SDS011;66064;50.226;14.344;2024-03-23T14:31:21;4.43;;;4.13;;
77111;SDS011;66064;50.226;14.344;2024-03-23T14:33:47;5.00;;;4.70;;
77111;SDS011;66064;50.226;14.344;2024-03-23T14:36:14;4.80;;;4.50;;
77111;SDS011;66064;50.226;14.344;2024-03-23T14:38:40;4.72;;;4.43;;
77111;SDS011;66064;50.226;14.344;2024-03-23T14:41:06;5.20;;;4.57;;
77111;SDS011;66064;50.226;14.344;2024-03-23T14:43:32;4.85;;;4.55;;
77111;SDS011;66064;50.226;14.344;2024-03-23T14:46:19;4.85;;;4.45;;
77111;SDS011;66064;50.226;14.344;2024-03-23T14:48:44;5.35;;;4.80;;
77111;SDS011;66064;50.226;14.344;2024-03-23T14:51:11;6.15;;;4.75;;
77111;SDS011;66064;50.226;14.344;2024-03-23T14:53:40;5.07;;;4.68;;
77111;SDS011;66064;50.226;14.344;2024-03-23T14:56:07;4.65;;;4.28;;
77111;SDS011;66064;50.226;14.344;2024-03-23T14:58:35;5.60;;;5.15;;
77111;SDS011;66064;50.226;14.344;2024-03-23T15:01:01;6.13;;;5.70;;
77111;SDS011;66064;50.226;14.344;2024-03-23T15:03:28;5.10;;;4.80;;
77111;SDS011;66064;50.226;14.344;2024-03-23T15:05:57;6.00;;;5.47;;
77111;SDS011;66064;50.226;14.344;2024-03-23T15:08:25;5.32;;;4.82;;
77111;SDS011;66064;50.226;14.344;2024-03-23T15:10:53;4.80;;;4.40;;
77111;SDS011;66064;50.226;14.344;2024-03-23T15:13:21;5.03;;;4.65;;
77111;SDS011;66064;50.226;14.344;2024-03-23T15:15:48;5.45;;;5.03;;
77111;SDS011;66064;50.226;14.344;2024-03-23T15:18:14;6.22;;;5.80;;
77111;SDS011;66064;50.226;14.344;2024-03-23T15:20:41;6.35;;;5.93;;
77111;SDS011;66064;50.226;14.344;2024-03-23T15:23:17;5.50;;;5.05;;
77111;SDS011;66064;50.226;14.344;2024-03-23T15:25:43;5.25;;;4.93;;
77111;SDS011;66064;50.226;14.344;2024-03-23T15:28:10;5.28;;;4.57;;